createdAt,value
2022-09-23T00:07:32.545Z,10.40
2022-09-23T00:17:35.239Z,10.05
2022-09-23T00:27:40.636Z,9.63
2022-09-23T00:37:48.599Z,9.85
2022-09-23T00:48:02.800Z,9.65
2022-09-23T00:58:09.807Z,10.05
2022-09-23T01:08:23.821Z,10.75
2022-09-23T01:19:04.304Z,10.73
2022-09-23T01:29:36.903Z,11.32
2022-09-23T01:40:01.821Z,10.48
2022-09-23T01:50:42.718Z,9.98
2022-09-23T02:00:55.870Z,10.48
2022-09-23T02:11:10.602Z,9.87
2022-09-23T02:21:15.505Z,10.13
2022-09-23T02:31:38.509Z,10.52
2022-09-23T02:41:45.126Z,10.27
2022-09-23T02:51:50.908Z,9.23
2022-09-23T03:02:14.880Z,10.20
2022-09-23T03:12:34.449Z,10.23
2022-09-23T03:22:49.959Z,9.63
2022-09-23T03:32:54.979Z,9.93
2022-09-23T03:42:57.915Z,9.30
2022-09-23T03:53:01.377Z,9.00
2022-09-23T04:03:03.982Z,9.18
2022-09-23T04:13:07.805Z,9.73
2022-09-23T04:23:09.363Z,9.20
2022-09-23T04:33:12.920Z,9.18
2022-09-23T04:43:28.035Z,10.45
2022-09-23T04:53:31.758Z,10.75
2022-09-23T05:03:36.019Z,11.18
2022-09-23T05:13:37.743Z,12.13
2022-09-23T05:23:40.850Z,11.63
2022-09-23T05:33:44.472Z,13.30
2022-09-23T05:43:47.537Z,11.30
2022-09-23T05:53:51.288Z,12.00
2022-09-23T06:03:54.790Z,9.48
2022-09-23T06:14:02.598Z,8.20
2022-09-23T06:24:05.072Z,8.93
2022-09-23T06:34:14.192Z,10.57
2022-09-23T06:44:17.015Z,9.25
2022-09-23T06:54:18.609Z,9.85
2022-09-23T07:04:21.271Z,10.07
2022-09-23T07:14:24.128Z,8.10
2022-09-23T07:24:26.978Z,7.77
2022-09-23T07:34:28.601Z,6.30
2022-09-23T07:44:31.757Z,5.65
2022-09-23T07:54:36.342Z,5.40
2022-09-23T08:04:39.262Z,4.50
2022-09-23T08:14:40.888Z,4.88
2022-09-23T08:24:44.750Z,4.18
2022-09-23T08:34:46.459Z,9.85
2022-09-23T08:44:53.358Z,3.30
2022-09-23T08:54:55.679Z,3.20
2022-09-23T09:05:03.450Z,3.40
2022-09-23T09:15:12.491Z,2.95
2022-09-23T09:26:05.205Z,3.53
2022-09-23T09:36:36.602Z,3.10
2022-09-23T09:46:52.127Z,3.72
2022-09-23T09:56:56.099Z,3.58
2022-09-23T10:07:27.251Z,3.58
2022-09-23T10:27:42.576Z,3.72
2022-09-23T10:37:56.637Z,4.60
2022-09-23T10:48:07.744Z,3.45
2022-09-23T10:58:19.523Z,3.22
2022-09-23T11:08:51.541Z,3.60
2022-09-23T11:19:13.313Z,4.18
2022-09-23T11:29:34.411Z,3.70
2022-09-23T11:39:42.645Z,3.75
2022-09-23T11:50:13.005Z,3.33
2022-09-23T12:00:29.014Z,3.40
2022-09-23T12:10:56.303Z,3.25
2022-09-23T12:21:49.066Z,3.03
2022-09-23T12:31:54.742Z,4.03
2022-09-23T12:42:06.670Z,3.15
2022-09-23T13:02:38.587Z,3.08
2022-09-23T13:12:42.739Z,2.88
2022-09-23T13:22:54.083Z,2.60
2022-09-23T13:33:12.930Z,2.47
2022-09-23T13:43:41.408Z,3.13
2022-09-23T13:53:52.399Z,3.30
2022-09-23T14:03:55.992Z,3.40
2022-09-23T14:13:59.744Z,2.65
2022-09-23T14:24:21.010Z,3.92
2022-09-23T14:34:52.431Z,3.80
2022-09-23T14:44:54.147Z,3.53
2022-09-23T14:54:55.909Z,3.35
2022-09-23T15:05:18.106Z,2.30
2022-09-23T15:15:30.089Z,3.80
2022-09-23T15:35:54.836Z,2.83
2022-09-23T15:46:05.481Z,3.10
2022-09-23T16:05:52.519Z,3.53
2022-09-23T16:15:54.305Z,3.55
2022-09-23T16:26:05.772Z,11.23
2022-09-23T16:36:21.370Z,5.30
2022-09-23T16:46:25.037Z,8.02
2022-09-23T16:56:29.060Z,3.72
2022-09-23T17:06:32.485Z,4.93
2022-09-23T17:16:35.240Z,4.25
2022-09-23T17:26:38.375Z,4.20
2022-09-23T17:36:40.660Z,4.10
2022-09-23T17:46:43.849Z,4.50
2022-09-23T17:56:45.457Z,5.05
2022-09-23T18:06:48.536Z,5.03
2022-09-23T18:26:54.988Z,7.88
2022-09-23T18:36:57.748Z,8.13
2022-09-23T18:46:59.580Z,10.48
2022-09-23T18:57:03.629Z,8.93
2022-09-23T19:07:05.650Z,9.43
2022-09-23T19:17:08.124Z,10.45
2022-09-23T19:27:15.003Z,11.63
2022-09-23T19:37:16.755Z,12.05
2022-09-23T19:47:20.655Z,13.45
2022-09-23T19:57:30.120Z,14.55
2022-09-23T20:07:31.723Z,14.90
2022-09-23T20:17:33.838Z,15.32
2022-09-23T20:27:35.699Z,14.13
2022-09-23T20:37:38.272Z,15.88
2022-09-23T20:47:40.655Z,14.30
2022-09-23T20:57:43.340Z,14.37
2022-09-23T21:07:49.158Z,14.02
2022-09-23T21:17:50.753Z,14.60
2022-09-23T21:27:53.846Z,16.02
2022-09-23T21:38:00.965Z,16.17
2022-09-23T21:48:02.732Z,15.85
2022-09-23T21:58:05.410Z,16.20
2022-09-23T22:08:09.295Z,15.07
2022-09-23T22:18:12.071Z,15.15
2022-09-23T22:28:32.251Z,15.20
2022-09-23T22:38:33.794Z,16.08
2022-09-23T22:48:35.417Z,15.27
2022-09-23T22:58:37.095Z,16.15
2022-09-23T23:08:38.864Z,15.75
2022-09-23T23:18:43.527Z,15.80
2022-09-23T23:28:45.219Z,14.77
2022-09-23T23:38:48.343Z,16.20
2022-09-23T23:48:51.235Z,16.20
2022-09-23T23:58:57.848Z,19.53
